createdAt,value
2019-02-04T00:00:45.135Z,11.65
2019-02-04T00:03:15.463Z,12.03
2019-02-04T00:05:44.267Z,12.28
2019-02-04T00:08:13.387Z,11.48
2019-02-04T00:10:43.048Z,11.85
2019-02-04T00:13:11.990Z,11.68
2019-02-04T00:15:40.985Z,11.97
2019-02-04T00:18:10.027Z,12.63
2019-02-04T00:20:38.730Z,12.30
2019-02-04T00:23:07.698Z,12.00
2019-02-04T00:25:36.931Z,12.30
2019-02-04T00:28:05.820Z,13.32
2019-02-04T00:30:34.632Z,12.90
2019-02-04T00:33:03.553Z,12.85
2019-02-04T00:35:32.263Z,14.23
2019-02-04T00:38:00.916Z,12.95
2019-02-04T00:40:30.535Z,12.73
2019-02-04T00:42:59.451Z,13.32
2019-02-04T00:45:28.165Z,12.58
2019-02-04T00:47:56.801Z,13.00
2019-02-04T00:50:25.684Z,14.65
2019-02-04T00:52:54.646Z,14.38
2019-02-04T00:55:24.206Z,14.43
2019-02-04T00:57:52.836Z,14.40
2019-02-04T01:00:24.271Z,15.90
2019-02-04T01:02:53.437Z,15.75
2019-02-04T01:05:22.681Z,13.72
2019-02-04T01:07:51.739Z,14.05
2019-02-04T01:10:22.946Z,14.55
2019-02-04T01:12:51.692Z,15.70
2019-02-04T01:15:20.584Z,14.70
2019-02-04T01:17:49.418Z,14.25
2019-02-04T01:20:23.585Z,15.85
2019-02-04T01:22:52.942Z,15.18
2019-02-04T01:25:21.855Z,15.10
2019-02-04T01:27:50.762Z,15.30
2019-02-04T01:30:20.707Z,15.95
2019-02-04T01:32:49.961Z,16.32
2019-02-04T01:35:18.683Z,16.40
2019-02-04T01:37:48.568Z,16.10
2019-02-04T01:40:19.862Z,15.53
2019-02-04T01:42:48.984Z,15.78
2019-02-04T01:45:17.981Z,16.35
2019-02-04T01:47:46.870Z,17.32
2019-02-04T01:50:17.846Z,16.55
2019-02-04T01:52:46.782Z,16.97
2019-02-04T01:55:15.571Z,15.30
2019-02-04T01:57:44.992Z,15.65
2019-02-04T02:00:19.887Z,16.37
2019-02-04T02:02:48.842Z,15.60
2019-02-04T02:05:17.710Z,15.83
2019-02-04T02:07:46.460Z,15.65
2019-02-04T02:10:17.672Z,15.75
2019-02-04T02:12:46.367Z,16.25
2019-02-04T02:15:15.106Z,15.35
2019-02-04T02:17:44.012Z,16.57
2019-02-04T02:20:15.142Z,17.02
2019-02-04T02:22:43.834Z,16.40
2019-02-04T02:25:12.630Z,16.75
2019-02-04T02:27:41.752Z,16.07
2019-02-04T02:30:13.827Z,17.10
2019-02-04T02:32:42.901Z,16.45
2019-02-04T02:35:11.940Z,15.58
2019-02-04T02:37:40.633Z,16.30
2019-02-04T02:40:13.439Z,15.08
2019-02-04T02:42:42.331Z,15.43
2019-02-04T02:45:11.244Z,15.35
2019-02-04T02:47:40.437Z,14.68
2019-02-04T02:50:09.613Z,14.87
2019-02-04T02:52:38.493Z,14.70
2019-02-04T02:55:09.307Z,14.20
2019-02-04T02:57:38.239Z,14.03
2019-02-04T03:00:09.281Z,13.60
2019-02-04T03:02:38.258Z,12.25
2019-02-04T03:05:09.450Z,13.38
2019-02-04T03:07:38.657Z,12.20
2019-02-04T03:10:09.663Z,13.65
2019-02-04T03:12:38.591Z,13.80
2019-02-04T03:15:08.339Z,13.05
2019-02-04T03:17:37.368Z,12.50
2019-02-04T03:20:07.471Z,12.88
2019-02-04T03:22:36.139Z,12.20
2019-02-04T03:25:05.661Z,12.18
2019-02-04T03:27:34.739Z,11.38
2019-02-04T03:30:03.979Z,12.50
2019-02-04T03:32:32.889Z,13.28
2019-02-04T03:35:01.798Z,13.13
2019-02-04T03:37:30.541Z,12.00
2019-02-04T03:39:59.170Z,12.40
2019-02-04T03:42:28.233Z,12.90
2019-02-04T03:44:57.128Z,13.78
2019-02-04T03:47:26.002Z,13.93
2019-02-04T03:49:55.151Z,12.78
2019-02-04T03:52:24.091Z,13.25
2019-02-04T03:54:52.828Z,12.80
2019-02-04T03:57:21.792Z,14.28
2019-02-04T03:59:50.522Z,15.18
2019-02-04T04:02:19.147Z,14.60
2019-02-04T04:04:48.024Z,17.00
2019-02-04T04:07:16.945Z,16.02
2019-02-04T04:09:46.149Z,14.38
2019-02-04T04:12:14.989Z,15.30
2019-02-04T04:14:43.907Z,15.40
2019-02-04T04:17:12.575Z,14.70
2019-02-04T04:19:41.461Z,16.20
2019-02-04T04:22:10.500Z,16.12
2019-02-04T04:24:39.250Z,14.68
2019-02-04T04:27:08.137Z,14.80
2019-02-04T04:29:37.030Z,14.63
2019-02-04T04:32:06.018Z,14.07
2019-02-04T04:34:34.646Z,12.98
2019-02-04T04:37:03.296Z,13.50
2019-02-04T04:39:32.451Z,13.20
2019-02-04T04:42:01.520Z,12.15
2019-02-04T04:44:30.437Z,12.28
2019-02-04T04:46:59.346Z,12.37
2019-02-04T04:49:28.598Z,12.47
2019-02-04T04:51:57.514Z,12.45
2019-02-04T04:54:27.054Z,12.20
2019-02-04T04:56:56.646Z,12.30
2019-02-04T04:59:25.418Z,12.88
2019-02-04T05:01:54.308Z,12.55
2019-02-04T05:04:23.234Z,14.03
2019-02-04T05:06:52.225Z,12.68
2019-02-04T05:09:21.101Z,13.05
2019-02-04T05:11:49.824Z,13.53
2019-02-04T05:14:18.596Z,13.83
2019-02-04T05:16:47.306Z,13.93
2019-02-04T05:19:15.927Z,14.63
2019-02-04T05:21:44.591Z,15.48
2019-02-04T05:24:13.515Z,15.78
2019-02-04T05:26:43.187Z,16.00
2019-02-04T05:29:11.859Z,15.90
2019-02-04T05:31:40.950Z,15.00
2019-02-04T05:34:09.824Z,16.82
2019-02-04T05:36:38.756Z,16.45
2019-02-04T05:39:08.600Z,17.25
2019-02-04T05:41:37.813Z,16.15
2019-02-04T05:44:06.563Z,17.23
2019-02-04T05:46:35.458Z,16.65
2019-02-04T05:49:04.113Z,17.55
2019-02-04T05:51:33.018Z,17.67
2019-02-04T05:54:01.748Z,16.35
2019-02-04T05:56:31.484Z,17.75
2019-02-04T05:59:00.457Z,18.48
2019-02-04T06:01:29.094Z,17.50
2019-02-04T06:03:57.748Z,17.17
2019-02-04T06:06:26.682Z,15.95
2019-02-04T06:08:56.100Z,18.45
2019-02-04T06:11:25.380Z,17.82
2019-02-04T06:13:54.066Z,20.05
2019-02-04T06:16:22.673Z,19.67
2019-02-04T06:19:00.431Z,19.82
2019-02-04T06:21:22.194Z,19.00
2019-02-04T06:23:52.207Z,20.30
2019-02-04T06:26:21.309Z,19.25
2019-02-04T06:28:50.001Z,20.95
2019-02-04T06:31:18.649Z,21.85
2019-02-04T06:33:47.549Z,21.97
2019-02-04T06:36:16.684Z,21.77
2019-02-04T06:38:45.396Z,20.85
2019-02-04T06:41:14.570Z,21.10
2019-02-04T06:43:43.457Z,20.45
2019-02-04T06:46:12.099Z,21.15
2019-02-04T06:48:41.135Z,20.40
2019-02-04T06:51:09.790Z,20.55
2019-02-04T06:53:38.445Z,20.92
2019-02-04T06:56:07.618Z,21.55
2019-02-04T06:58:36.524Z,20.50
2019-02-04T07:01:05.477Z,21.20
2019-02-04T07:03:34.466Z,24.52
2019-02-04T07:06:03.149Z,23.10
2019-02-04T07:08:32.010Z,22.93
2019-02-04T07:11:01.384Z,21.60
2019-02-04T07:13:30.139Z,21.02
2019-02-04T07:15:58.792Z,20.72
2019-02-04T07:18:27.684Z,20.45
2019-02-04T07:20:57.252Z,20.72
2019-02-04T07:23:25.917Z,22.30
2019-02-04T07:25:54.830Z,21.37
2019-02-04T07:28:23.805Z,21.10
2019-02-04T07:30:53.011Z,21.50
2019-02-04T07:33:21.625Z,21.40
2019-02-04T07:35:50.549Z,18.87
2019-02-04T07:38:19.215Z,21.90
2019-02-04T07:40:47.866Z,21.07
2019-02-04T07:43:16.836Z,21.45
2019-02-04T07:45:45.743Z,21.80
2019-02-04T07:48:14.632Z,22.32
2019-02-04T07:50:43.525Z,22.07
2019-02-04T07:53:12.412Z,21.42
2019-02-04T07:55:41.356Z,18.37
2019-02-04T07:58:10.446Z,19.77
2019-02-04T08:00:39.631Z,17.37
2019-02-04T08:03:08.629Z,16.85
2019-02-04T08:05:37.383Z,18.10
2019-02-04T08:08:06.344Z,12.90
2019-02-04T08:10:35.437Z,16.87
2019-02-04T08:13:04.596Z,16.35
2019-02-04T08:15:35.619Z,15.18
2019-02-04T08:18:05.580Z,16.42
2019-02-04T08:20:34.443Z,15.48
2019-02-04T08:23:03.084Z,15.55
2019-02-04T08:25:31.845Z,14.98
2019-02-04T08:28:00.608Z,15.05
2019-02-04T08:30:31.739Z,15.10
2019-02-04T08:33:00.722Z,13.27
2019-02-04T08:35:30.561Z,11.90
2019-02-04T08:37:59.695Z,11.97
2019-02-04T08:40:28.518Z,11.63
2019-02-04T08:42:57.336Z,11.17
2019-02-04T08:45:26.202Z,10.93
2019-02-04T08:47:55.082Z,11.67
2019-02-04T08:50:24.255Z,9.10
2019-02-04T08:52:53.488Z,12.73
2019-02-04T08:55:22.182Z,8.37
2019-02-04T08:57:51.449Z,7.87
2019-02-04T09:00:21.045Z,7.47
2019-02-04T09:02:50.131Z,7.23
2019-02-04T09:05:18.996Z,8.03
2019-02-04T09:07:48.259Z,7.40
2019-02-04T09:10:29.024Z,7.83
2019-02-04T09:12:58.171Z,6.00
2019-02-04T09:15:26.878Z,5.77
2019-02-04T09:17:55.870Z,7.23
2019-02-04T09:20:25.153Z,4.07
2019-02-04T09:22:54.098Z,6.20
2019-02-04T09:25:23.899Z,5.70
2019-02-04T09:27:53.067Z,6.00
2019-02-04T09:30:23.572Z,5.90
2019-02-04T09:32:52.941Z,5.67
2019-02-04T09:35:21.987Z,5.77
2019-02-04T09:37:51.099Z,5.40
2019-02-04T09:40:23.305Z,5.50
2019-02-04T09:42:52.391Z,5.60
2019-02-04T09:45:24.271Z,6.23
2019-02-04T09:47:51.665Z,5.40
2019-02-04T09:50:22.172Z,6.13
2019-02-04T09:52:51.149Z,5.50
2019-02-04T09:55:22.436Z,5.87
2019-02-04T09:57:51.216Z,5.70
2019-02-04T10:00:22.401Z,5.13
2019-02-04T10:02:51.295Z,4.60
2019-02-04T10:05:20.139Z,5.57
2019-02-04T10:07:49.082Z,5.67
2019-02-04T10:10:20.425Z,4.47
2019-02-04T10:12:52.350Z,4.23
2019-02-04T10:15:25.726Z,4.77
2019-02-04T10:17:54.555Z,5.10
2019-02-04T10:20:33.490Z,6.13
2019-02-04T10:22:53.884Z,5.67
2019-02-04T10:25:24.564Z,5.80
2019-02-04T10:27:53.522Z,5.13
2019-02-04T10:30:23.185Z,5.40
2019-02-04T10:32:51.903Z,5.60
2019-02-04T10:35:20.646Z,4.90
2019-02-04T10:37:50.553Z,4.77
2019-02-04T10:40:21.215Z,5.70
2019-02-04T10:42:49.875Z,4.53
2019-02-04T10:45:19.211Z,5.57
2019-02-04T10:47:48.651Z,5.57
2019-02-04T10:50:45.630Z,5.60
2019-02-04T10:53:08.981Z,5.83
2019-02-04T10:55:37.899Z,6.20
2019-02-04T10:58:08.244Z,5.73
2019-02-04T11:00:37.410Z,5.73
2019-02-04T11:03:06.812Z,7.00
2019-02-04T11:05:36.038Z,5.67
2019-02-04T11:08:05.725Z,6.67
2019-02-04T11:10:35.798Z,7.23
2019-02-04T11:13:14.163Z,6.27
2019-02-04T11:15:43.897Z,5.93
2019-02-04T11:18:13.351Z,7.83
2019-02-04T11:20:42.457Z,7.97
2019-02-04T11:23:11.168Z,7.90
2019-02-04T11:25:40.172Z,7.53
2019-02-04T11:28:10.511Z,7.60
2019-02-04T11:30:51.240Z,8.17
2019-02-04T11:33:20.566Z,8.30
2019-02-04T11:35:49.700Z,9.20
2019-02-04T11:38:18.669Z,8.20
2019-02-04T11:40:47.263Z,8.47
2019-02-04T11:43:16.044Z,8.60
2019-02-04T11:45:44.867Z,8.73
2019-02-04T11:48:14.740Z,8.73
2019-02-04T11:50:43.569Z,9.20
2019-02-04T11:53:12.581Z,9.57
2019-02-04T11:55:41.484Z,9.60
2019-02-04T11:58:10.359Z,8.03
2019-02-04T12:00:41.676Z,8.20
2019-02-04T12:03:12.378Z,10.23
2019-02-04T12:05:41.333Z,10.20
2019-02-04T12:08:10.769Z,8.90
2019-02-04T12:10:42.837Z,9.77
2019-02-04T12:13:12.117Z,9.50
2019-02-04T12:15:41.774Z,10.60
2019-02-04T12:18:10.876Z,10.73
2019-02-04T12:20:40.109Z,11.80
2019-02-04T12:23:09.022Z,8.83
2019-02-04T12:25:38.052Z,9.60
2019-02-04T12:28:07.221Z,10.13
2019-02-04T12:30:38.438Z,11.40
2019-02-04T12:33:09.264Z,10.93
2019-02-04T12:35:37.916Z,10.97
2019-02-04T12:38:06.731Z,12.30
2019-02-04T12:40:36.131Z,10.90
2019-02-04T12:43:04.905Z,12.73
2019-02-04T12:45:34.570Z,12.70
2019-02-04T12:48:03.623Z,10.63
2019-02-04T12:50:32.676Z,11.60
2019-02-04T12:53:01.549Z,10.23
2019-02-04T12:55:30.813Z,12.73
2019-02-04T12:57:59.790Z,13.93
2019-02-04T13:00:29.101Z,10.63
2019-02-04T13:02:57.890Z,13.43
2019-02-04T13:05:30.219Z,13.27
2019-02-04T13:07:59.187Z,13.50
2019-02-04T13:10:27.948Z,13.33
2019-02-04T13:12:56.986Z,13.37
2019-02-04T13:15:26.526Z,14.17
2019-02-04T13:17:55.588Z,13.33
2019-02-04T13:20:24.405Z,14.20
2019-02-04T13:22:53.115Z,12.53
2019-02-04T13:25:23.704Z,11.77
2019-02-04T13:27:52.615Z,13.40
2019-02-04T13:30:23.460Z,14.67
2019-02-04T13:32:52.096Z,14.57
2019-02-04T13:35:20.978Z,13.57
2019-02-04T13:37:49.922Z,9.50
2019-02-04T13:40:24.325Z,13.37
2019-02-04T13:42:53.481Z,12.90
2019-02-04T13:45:22.597Z,14.73
2019-02-04T13:47:51.731Z,14.60
2019-02-04T13:50:20.822Z,9.10
2019-02-04T13:52:50.737Z,14.27
2019-02-04T13:55:25.234Z,10.20
2019-02-04T13:57:54.259Z,13.70
2019-02-04T14:00:23.618Z,15.10
2019-02-04T14:02:59.298Z,11.80
2019-02-04T14:05:23.103Z,14.17
2019-02-04T14:07:52.065Z,12.57
2019-02-04T14:10:26.561Z,13.03
2019-02-04T14:12:55.266Z,14.40
2019-02-04T14:15:24.540Z,14.60
2019-02-04T14:17:53.704Z,12.47
2019-02-04T14:20:23.016Z,14.13
2019-02-04T14:22:53.415Z,9.73
2019-02-04T14:25:22.536Z,11.17
2019-02-04T14:27:51.499Z,13.77
2019-02-04T14:30:23.078Z,13.20
2019-02-04T14:32:52.354Z,13.30
2019-02-04T14:35:21.303Z,12.00
2019-02-04T14:37:50.237Z,13.00
2019-02-04T14:40:19.135Z,12.43
2019-02-04T14:42:50.694Z,11.00
2019-02-04T14:45:30.800Z,9.10
2019-02-04T14:48:12.831Z,10.60
2019-02-04T14:50:56.409Z,10.60
2019-02-04T14:54:12.006Z,11.20
2019-02-04T14:57:21.103Z,10.90
2019-02-04T15:00:03.062Z,12.03
2019-02-04T15:03:19.645Z,11.07
2019-02-04T15:06:15.286Z,11.93
2019-02-04T15:09:08.384Z,9.53
2019-02-04T15:12:13.769Z,10.33
2019-02-04T15:15:00.339Z,10.80
2019-02-04T15:17:55.592Z,11.43
2019-02-04T15:20:54.137Z,9.80
2019-02-04T15:24:09.071Z,12.37
2019-02-04T15:27:06.598Z,9.27
2019-02-04T15:29:46.863Z,11.20
2019-02-04T15:32:46.330Z,12.60
2019-02-04T15:35:51.103Z,11.20
2019-02-04T15:38:52.634Z,12.47
2019-02-04T15:41:42.435Z,10.33
2019-02-04T15:44:36.527Z,10.77
2019-02-04T15:47:15.872Z,9.67
2019-02-04T15:50:06.857Z,10.93
2019-02-04T15:52:45.170Z,10.03
2019-02-04T15:55:10.476Z,11.80
2019-02-04T15:57:39.117Z,11.30
2019-02-04T16:00:08.611Z,10.60
2019-02-04T16:02:37.278Z,11.97
2019-02-04T16:05:07.288Z,10.20
2019-02-04T16:07:36.134Z,9.73
2019-02-04T16:10:07.427Z,9.83
2019-02-04T16:12:36.311Z,10.83
2019-02-04T16:15:05.965Z,10.83
2019-02-04T16:17:34.790Z,10.70
2019-02-04T16:20:04.250Z,10.47
2019-02-04T16:22:33.407Z,7.57
2019-02-04T16:25:02.299Z,10.23
2019-02-04T16:27:31.270Z,8.40
2019-02-04T16:30:00.554Z,10.67
2019-02-04T16:32:29.399Z,9.20
2019-02-04T16:34:58.273Z,8.30
2019-02-04T16:37:27.198Z,9.17
2019-02-04T16:39:56.373Z,9.77
2019-02-04T16:42:25.563Z,10.47
2019-02-04T16:44:54.425Z,8.70
2019-02-04T16:47:23.706Z,10.43
2019-02-04T16:49:52.370Z,9.83
2019-02-04T16:52:21.325Z,9.67
2019-02-04T16:54:50.274Z,9.80
2019-02-04T16:57:18.911Z,9.07
2019-02-04T16:59:48.725Z,8.13
2019-02-04T17:02:17.730Z,10.37
2019-02-04T17:04:46.662Z,9.03
2019-02-04T17:07:15.937Z,9.73
2019-02-04T17:09:45.384Z,9.00
2019-02-04T17:12:14.027Z,10.00
2019-02-04T17:14:42.765Z,7.73
2019-02-04T17:17:11.397Z,7.63
2019-02-04T17:19:40.039Z,9.83
2019-02-04T17:22:08.699Z,8.80
2019-02-04T17:24:38.200Z,9.67
2019-02-04T17:27:07.173Z,9.90
2019-02-04T17:29:36.089Z,8.53
2019-02-04T17:32:04.902Z,9.73
2019-02-04T17:34:34.898Z,7.97
2019-02-04T17:37:03.625Z,10.27
2019-02-04T17:39:33.129Z,9.07
2019-02-04T17:42:02.069Z,8.97
2019-02-04T17:44:31.168Z,7.93
2019-02-04T17:47:00.305Z,7.03
2019-02-04T17:49:29.229Z,8.80
2019-02-04T17:51:58.325Z,8.57
2019-02-04T17:54:27.562Z,10.13
2019-02-04T17:56:56.374Z,9.43
2019-02-04T17:59:25.315Z,7.73
2019-02-04T18:01:54.116Z,8.90
2019-02-04T18:04:23.029Z,9.73
2019-02-04T18:06:51.843Z,7.73
2019-02-04T18:09:21.110Z,7.90
2019-02-04T18:11:50.002Z,9.47
2019-02-04T18:14:18.962Z,8.33
2019-02-04T18:16:47.579Z,7.73
2019-02-04T18:19:16.542Z,7.80
2019-02-04T18:21:45.264Z,7.60
2019-02-04T18:24:15.061Z,8.73
2019-02-04T18:26:44.048Z,7.20
2019-02-04T18:29:12.681Z,7.70
2019-02-04T18:31:41.635Z,8.10
2019-02-04T18:34:10.267Z,7.30
2019-02-04T18:36:39.384Z,8.37
2019-02-04T18:39:09.870Z,10.07
2019-02-04T18:41:38.800Z,7.93
2019-02-04T18:44:07.840Z,9.40
2019-02-04T18:46:37.052Z,7.87
2019-02-04T18:49:05.991Z,6.83
2019-02-04T18:51:34.835Z,7.97
2019-02-04T18:54:03.872Z,8.63
2019-02-04T18:56:32.786Z,8.33
2019-02-04T18:59:01.433Z,8.67
2019-02-04T19:01:30.375Z,7.43
2019-02-04T19:03:59.271Z,8.30
2019-02-04T19:06:28.264Z,7.87
2019-02-04T19:08:56.881Z,8.57
2019-02-04T19:11:25.954Z,7.23
2019-02-04T19:13:54.853Z,7.60
2019-02-04T19:16:23.892Z,7.83
2019-02-04T19:18:52.886Z,8.60
2019-02-04T19:21:21.771Z,8.27
2019-02-04T19:23:50.675Z,7.87
2019-02-04T19:26:19.307Z,6.77
2019-02-04T19:28:50.879Z,6.13
2019-02-04T19:31:21.827Z,8.83
2019-02-04T19:33:50.741Z,7.47
2019-02-04T19:36:19.682Z,7.10
2019-02-04T19:38:48.488Z,7.57
2019-02-04T19:41:17.345Z,6.80
2019-02-04T19:43:46.281Z,7.20
2019-02-04T19:46:14.935Z,7.47
2019-02-04T19:48:43.892Z,6.00
2019-02-04T19:51:12.517Z,6.50
2019-02-04T19:53:41.229Z,5.83
2019-02-04T19:56:09.935Z,7.30
2019-02-04T19:58:38.829Z,7.90
2019-02-04T20:01:07.724Z,5.73
2019-02-04T20:03:37.192Z,7.67
2019-02-04T20:06:06.873Z,8.27
2019-02-04T20:08:35.680Z,7.37
2019-02-04T20:11:04.830Z,6.27
2019-02-04T20:13:33.544Z,7.83
2019-02-04T20:16:02.250Z,5.57
2019-02-04T20:18:31.195Z,6.80
2019-02-04T20:21:00.314Z,5.70
2019-02-04T20:23:29.418Z,6.50
2019-02-04T20:25:58.030Z,6.40
2019-02-04T20:28:26.681Z,6.23
2019-02-04T20:30:55.614Z,6.33
2019-02-04T20:33:24.284Z,5.87
2019-02-04T20:35:53.159Z,6.13
2019-02-04T20:38:29.080Z,5.13
2019-02-04T20:40:57.978Z,7.43
2019-02-04T20:43:26.911Z,5.20
2019-02-04T20:45:55.822Z,6.50
2019-02-04T20:48:24.877Z,5.03
2019-02-04T20:50:53.811Z,6.87
2019-02-04T20:53:23.072Z,5.43
2019-02-04T20:55:51.751Z,7.07
2019-02-04T20:58:20.498Z,7.83
2019-02-04T21:00:49.470Z,7.97
2019-02-04T21:03:18.401Z,7.33
2019-02-04T21:05:47.330Z,7.83
2019-02-04T21:08:16.128Z,5.73
2019-02-04T21:10:44.781Z,6.20
2019-02-04T21:13:13.749Z,8.37
2019-02-04T21:15:42.652Z,6.70
2019-02-04T21:18:11.724Z,6.33
2019-02-04T21:20:40.884Z,7.53
2019-02-04T21:23:10.000Z,5.77
2019-02-04T21:25:39.135Z,4.83
2019-02-04T21:28:07.744Z,5.67
2019-02-04T21:30:39.045Z,6.43
2019-02-04T21:33:08.099Z,5.87
2019-02-04T21:35:37.057Z,6.07
2019-02-04T21:38:06.523Z,5.00
2019-02-04T21:40:35.405Z,6.00
2019-02-04T21:43:04.218Z,5.43
2019-02-04T21:45:32.826Z,4.07
2019-02-04T21:48:01.721Z,5.40
2019-02-04T21:50:30.415Z,6.33
2019-02-04T21:52:59.126Z,6.40
2019-02-04T21:55:28.551Z,6.60
2019-02-04T21:57:57.432Z,6.43
2019-02-04T22:00:31.785Z,7.30
2019-02-04T22:03:00.711Z,6.43
2019-02-04T22:05:30.684Z,8.10
2019-02-04T22:07:59.882Z,6.33
2019-02-04T22:10:29.503Z,7.00
2019-02-04T22:12:58.793Z,4.93
2019-02-04T22:15:27.558Z,6.87
2019-02-04T22:17:56.801Z,6.87
2019-02-04T22:20:26.166Z,6.40
2019-02-04T22:22:55.146Z,7.57
2019-02-04T22:25:24.477Z,6.70
2019-02-04T22:27:53.209Z,6.93
2019-02-04T22:30:24.025Z,5.57
2019-02-04T22:32:53.009Z,7.00
2019-02-04T22:35:22.132Z,7.57
2019-02-04T22:37:50.817Z,6.67
2019-02-04T22:40:25.394Z,5.37
2019-02-04T22:42:54.360Z,6.43
2019-02-04T22:45:23.088Z,7.07
2019-02-04T22:47:51.863Z,8.10
2019-02-04T22:50:25.534Z,6.23
2019-02-04T22:52:54.300Z,6.20
2019-02-04T22:55:31.793Z,6.50
2019-02-04T22:57:54.596Z,6.20
2019-02-04T23:00:50.009Z,6.83
2019-02-04T23:03:20.624Z,5.53
2019-02-04T23:05:50.142Z,6.50
2019-02-04T23:08:18.864Z,4.03
2019-02-04T23:10:47.620Z,6.47
2019-02-04T23:13:16.247Z,7.70
2019-02-04T23:15:45.202Z,6.87
2019-02-04T23:18:14.883Z,6.50
2019-02-04T23:20:43.879Z,6.43
2019-02-04T23:23:12.723Z,6.63
2019-02-04T23:25:43.616Z,6.23
2019-02-04T23:28:12.067Z,6.97
2019-02-04T23:30:40.741Z,6.17
2019-02-04T23:33:09.736Z,7.80
2019-02-04T23:35:38.729Z,5.63
2019-02-04T23:38:07.444Z,7.40
2019-02-04T23:40:36.073Z,6.60
2019-02-04T23:43:05.769Z,5.40
2019-02-04T23:45:34.428Z,7.60
2019-02-04T23:48:03.057Z,6.10
2019-02-04T23:50:32.250Z,7.20
2019-02-04T23:53:01.155Z,6.20
2019-02-04T23:55:30.150Z,6.73
2019-02-04T23:57:58.765Z,5.67
